sensor_id;sensor_type;location;lat;lon;timestamp;P1;durP1;ratioP1;P2;durP2;ratioP2
50249;SDS011;36133;42.522;27.456;2023-05-07T00:02:21;16.35;;;3.60;;
50249;SDS011;36133;42.522;27.456;2023-05-07T00:04:47;8.35;;;3.17;;
50249;SDS011;36133;42.522;27.456;2023-05-07T00:07:13;5.75;;;3.08;;
50249;SDS011;36133;42.522;27.456;2023-05-07T00:09:39;6.13;;;2.72;;
50249;SDS011;36133;42.522;27.456;2023-05-07T00:12:05;9.30;;;2.75;;
50249;SDS011;36133;42.522;27.456;2023-05-07T00:14:31;4.88;;;3.03;;
50249;SDS011;36133;42.522;27.456;2023-05-07T00:16:57;6.47;;;2.70;;
50249;SDS011;36133;42.522;27.456;2023-05-07T00:19:22;7.20;;;2.85;;
50249;SDS011;36133;42.522;27.456;2023-05-07T00:21:48;5.95;;;3.10;;
50249;SDS011;36133;42.522;27.456;2023-05-07T00:24:13;6.95;;;3.35;;
50249;SDS011;36133;42.522;27.456;2023-05-07T00:26:39;7.50;;;3.67;;
50249;SDS011;36133;42.522;27.456;2023-05-07T00:29:04;6.30;;;3.30;;
50249;SDS011;36133;42.522;27.456;2023-05-07T00:31:30;4.38;;;3.25;;
50249;SDS011;36133;42.522;27.456;2023-05-07T00:33:55;5.95;;;3.22;;
50249;SDS011;36133;42.522;27.456;2023-05-07T00:36:21;5.97;;;3.40;;
50249;SDS011;36133;42.522;27.456;2023-05-07T00:38:46;7.20;;;3.65;;
50249;SDS011;36133;42.522;27.456;2023-05-07T00:41:12;5.35;;;3.20;;
50249;SDS011;36133;42.522;27.456;2023-05-07T00:43:37;12.27;;;4.00;;
50249;SDS011;36133;42.522;27.456;2023-05-07T00:46:03;7.65;;;3.55;;
50249;SDS011;36133;42.522;27.456;2023-05-07T00:48:29;7.35;;;3.53;;
50249;SDS011;36133;42.522;27.456;2023-05-07T00:50:55;5.22;;;3.45;;
50249;SDS011;36133;42.522;27.456;2023-05-07T00:53:21;7.95;;;4.10;;
50249;SDS011;36133;42.522;27.456;2023-05-07T00:55:47;8.43;;;4.68;;
50249;SDS011;36133;42.522;27.456;2023-05-07T00:58:13;8.70;;;4.95;;
50249;SDS011;36133;42.522;27.456;2023-05-07T01:00:39;11.82;;;4.53;;
50249;SDS011;36133;42.522;27.456;2023-05-07T01:03:04;12.70;;;4.50;;
50249;SDS011;36133;42.522;27.456;2023-05-07T01:05:30;14.10;;;5.00;;
50249;SDS011;36133;42.522;27.456;2023-05-07T01:07:55;9.30;;;4.80;;
50249;SDS011;36133;42.522;27.456;2023-05-07T01:10:22;12.90;;;4.85;;
50249;SDS011;36133;42.522;27.456;2023-05-07T01:12:47;12.27;;;5.10;;
50249;SDS011;36133;42.522;27.456;2023-05-07T01:15:14;10.35;;;4.93;;
50249;SDS011;36133;42.522;27.456;2023-05-07T01:17:41;11.75;;;4.78;;
50249;SDS011;36133;42.522;27.456;2023-05-07T01:20:08;8.63;;;4.53;;
50249;SDS011;36133;42.522;27.456;2023-05-07T01:22:35;6.25;;;4.20;;
50249;SDS011;36133;42.522;27.456;2023-05-07T01:25:03;9.38;;;3.85;;
50249;SDS011;36133;42.522;27.456;2023-05-07T01:27:29;9.85;;;4.72;;
50249;SDS011;36133;42.522;27.456;2023-05-07T01:29:55;8.90;;;4.18;;
50249;SDS011;36133;42.522;27.456;2023-05-07T01:33:03;7.50;;;3.95;;
50249;SDS011;36133;42.522;27.456;2023-05-07T01:35:24;11.45;;;4.22;;
50249;SDS011;36133;42.522;27.456;2023-05-07T01:37:53;10.30;;;4.32;;
50249;SDS011;36133;42.522;27.456;2023-05-07T01:40:19;10.90;;;4.55;;
50249;SDS011;36133;42.522;27.456;2023-05-07T01:42:46;11.50;;;4.20;;
50249;SDS011;36133;42.522;27.456;2023-05-07T01:45:13;8.32;;;4.45;;
50249;SDS011;36133;42.522;27.456;2023-05-07T01:47:39;8.60;;;4.55;;
50249;SDS011;36133;42.522;27.456;2023-05-07T01:50:05;7.78;;;3.85;;
50249;SDS011;36133;42.522;27.456;2023-05-07T01:52:33;13.43;;;4.45;;
50249;SDS011;36133;42.522;27.456;2023-05-07T01:54:59;8.80;;;3.90;;
50249;SDS011;36133;42.522;27.456;2023-05-07T01:57:25;7.15;;;4.03;;
50249;SDS011;36133;42.522;27.456;2023-05-07T01:59:50;12.35;;;3.90;;
50249;SDS011;36133;42.522;27.456;2023-05-07T02:02:16;8.05;;;5.00;;
50249;SDS011;36133;42.522;27.456;2023-05-07T02:04:41;14.32;;;4.18;;
50249;SDS011;36133;42.522;27.456;2023-05-07T02:07:07;12.45;;;4.35;;
50249;SDS011;36133;42.522;27.456;2023-05-07T02:09:32;12.40;;;5.70;;
50249;SDS011;36133;42.522;27.456;2023-05-07T02:11:58;9.68;;;5.63;;
50249;SDS011;36133;42.522;27.456;2023-05-07T02:14:24;15.20;;;6.90;;
50249;SDS011;36133;42.522;27.456;2023-05-07T02:16:51;8.40;;;4.70;;
50249;SDS011;36133;42.522;27.456;2023-05-07T02:19:16;14.23;;;5.38;;
50249;SDS011;36133;42.522;27.456;2023-05-07T02:21:46;12.35;;;4.32;;
50249;SDS011;36133;42.522;27.456;2023-05-07T02:24:12;10.10;;;4.70;;
50249;SDS011;36133;42.522;27.456;2023-05-07T02:26:39;11.07;;;5.13;;
50249;SDS011;36133;42.522;27.456;2023-05-07T02:29:07;7.53;;;4.10;;
50249;SDS011;36133;42.522;27.456;2023-05-07T02:31:32;9.20;;;5.53;;
50249;SDS011;36133;42.522;27.456;2023-05-07T02:33:59;12.07;;;4.97;;
50249;SDS011;36133;42.522;27.456;2023-05-07T02:36:25;9.48;;;4.57;;
50249;SDS011;36133;42.522;27.456;2023-05-07T02:38:51;11.10;;;4.53;;
50249;SDS011;36133;42.522;27.456;2023-05-07T02:41:17;9.77;;;4.93;;
50249;SDS011;36133;42.522;27.456;2023-05-07T02:43:43;10.85;;;4.55;;
50249;SDS011;36133;42.522;27.456;2023-05-07T02:46:08;8.50;;;4.20;;
50249;SDS011;36133;42.522;27.456;2023-05-07T02:48:34;8.48;;;4.35;;
50249;SDS011;36133;42.522;27.456;2023-05-07T02:51:00;13.65;;;4.18;;
50249;SDS011;36133;42.522;27.456;2023-05-07T02:53:26;14.05;;;4.68;;
50249;SDS011;36133;42.522;27.456;2023-05-07T02:55:59;11.73;;;3.80;;
50249;SDS011;36133;42.522;27.456;2023-05-07T02:58:25;9.70;;;3.92;;
50249;SDS011;36133;42.522;27.456;2023-05-07T03:00:51;11.40;;;4.00;;
50249;SDS011;36133;42.522;27.456;2023-05-07T03:03:17;4.88;;;3.47;;
50249;SDS011;36133;42.522;27.456;2023-05-07T03:05:43;7.97;;;3.88;;
50249;SDS011;36133;42.522;27.456;2023-05-07T03:08:09;7.95;;;4.03;;
50249;SDS011;36133;42.522;27.456;2023-05-07T03:10:35;8.88;;;4.07;;
50249;SDS011;36133;42.522;27.456;2023-05-07T03:13:01;11.40;;;4.40;;
50249;SDS011;36133;42.522;27.456;2023-05-07T03:15:27;13.13;;;4.47;;
50249;SDS011;36133;42.522;27.456;2023-05-07T03:17:53;10.18;;;3.92;;
50249;SDS011;36133;42.522;27.456;2023-05-07T03:20:18;8.55;;;3.88;;
50249;SDS011;36133;42.522;27.456;2023-05-07T03:22:44;11.20;;;3.70;;
50249;SDS011;36133;42.522;27.456;2023-05-07T03:25:09;12.25;;;3.80;;
50249;SDS011;36133;42.522;27.456;2023-05-07T03:27:35;7.88;;;3.78;;
50249;SDS011;36133;42.522;27.456;2023-05-07T03:30:01;6.72;;;3.67;;
50249;SDS011;36133;42.522;27.456;2023-05-07T03:32:27;7.35;;;3.88;;
50249;SDS011;36133;42.522;27.456;2023-05-07T03:34:53;6.70;;;3.80;;
50249;SDS011;36133;42.522;27.456;2023-05-07T03:37:18;6.05;;;3.72;;
50249;SDS011;36133;42.522;27.456;2023-05-07T03:39:44;11.20;;;4.05;;
50249;SDS011;36133;42.522;27.456;2023-05-07T03:42:10;9.48;;;3.95;;
50249;SDS011;36133;42.522;27.456;2023-05-07T03:44:35;9.75;;;3.97;;
50249;SDS011;36133;42.522;27.456;2023-05-07T03:47:01;8.45;;;3.67;;
50249;SDS011;36133;42.522;27.456;2023-05-07T03:49:27;12.75;;;4.00;;
50249;SDS011;36133;42.522;27.456;2023-05-07T03:51:53;13.18;;;4.00;;
50249;SDS011;36133;42.522;27.456;2023-05-07T03:54:18;9.50;;;3.95;;
50249;SDS011;36133;42.522;27.456;2023-05-07T03:56:44;12.73;;;3.95;;
50249;SDS011;36133;42.522;27.456;2023-05-07T03:59:10;17.33;;;4.03;;
50249;SDS011;36133;42.522;27.456;2023-05-07T04:01:35;13.40;;;4.03;;
50249;SDS011;36133;42.522;27.456;2023-05-07T04:04:01;5.63;;;3.60;;
50249;SDS011;36133;42.522;27.456;2023-05-07T04:06:29;18.58;;;4.25;;
50249;SDS011;36133;42.522;27.456;2023-05-07T04:08:56;8.50;;;4.05;;
50249;SDS011;36133;42.522;27.456;2023-05-07T04:11:21;14.35;;;3.72;;
50249;SDS011;36133;42.522;27.456;2023-05-07T04:13:47;11.35;;;3.67;;
50249;SDS011;36133;42.522;27.456;2023-05-07T04:16:12;7.40;;;3.50;;
50249;SDS011;36133;42.522;27.456;2023-05-07T04:18:38;10.50;;;4.10;;
50249;SDS011;36133;42.522;27.456;2023-05-07T04:21:04;12.50;;;3.88;;
50249;SDS011;36133;42.522;27.456;2023-05-07T04:23:30;8.27;;;3.60;;
50249;SDS011;36133;42.522;27.456;2023-05-07T04:25:55;9.77;;;4.18;;
50249;SDS011;36133;42.522;27.456;2023-05-07T04:28:22;6.18;;;3.08;;
50249;SDS011;36133;42.522;27.456;2023-05-07T04:30:48;15.23;;;3.47;;
50249;SDS011;36133;42.522;27.456;2023-05-07T04:33:14;6.75;;;3.60;;
50249;SDS011;36133;42.522;27.456;2023-05-07T04:35:43;8.20;;;3.60;;
50249;SDS011;36133;42.522;27.456;2023-05-07T04:38:08;6.70;;;3.40;;
50249;SDS011;36133;42.522;27.456;2023-05-07T04:40:35;14.55;;;3.45;;
50249;SDS011;36133;42.522;27.456;2023-05-07T04:43:01;7.60;;;3.30;;
50249;SDS011;36133;42.522;27.456;2023-05-07T04:45:27;10.40;;;3.60;;
50249;SDS011;36133;42.522;27.456;2023-05-07T04:47:52;8.98;;;3.50;;
50249;SDS011;36133;42.522;27.456;2023-05-07T04:50:18;9.45;;;3.00;;
50249;SDS011;36133;42.522;27.456;2023-05-07T04:52:44;5.05;;;2.75;;
50249;SDS011;36133;42.522;27.456;2023-05-07T04:55:10;16.33;;;3.20;;
50249;SDS011;36133;42.522;27.456;2023-05-07T04:57:36;11.00;;;2.95;;
50249;SDS011;36133;42.522;27.456;2023-05-07T05:00:03;8.65;;;3.53;;
50249;SDS011;36133;42.522;27.456;2023-05-07T05:02:29;17.83;;;3.60;;
50249;SDS011;36133;42.522;27.456;2023-05-07T05:04:55;9.45;;;2.90;;
50249;SDS011;36133;42.522;27.456;2023-05-07T05:07:20;9.20;;;2.80;;
50249;SDS011;36133;42.522;27.456;2023-05-07T05:09:46;7.90;;;2.75;;
50249;SDS011;36133;42.522;27.456;2023-05-07T05:12:11;6.78;;;2.90;;
50249;SDS011;36133;42.522;27.456;2023-05-07T05:14:37;7.65;;;3.10;;
50249;SDS011;36133;42.522;27.456;2023-05-07T05:17:02;6.18;;;2.95;;
50249;SDS011;36133;42.522;27.456;2023-05-07T05:19:28;7.38;;;3.10;;
50249;SDS011;36133;42.522;27.456;2023-05-07T05:21:53;8.48;;;3.05;;
50249;SDS011;36133;42.522;27.456;2023-05-07T05:24:19;8.95;;;3.15;;
50249;SDS011;36133;42.522;27.456;2023-05-07T05:26:45;10.23;;;2.95;;
50249;SDS011;36133;42.522;27.456;2023-05-07T05:29:10;6.53;;;2.67;;
50249;SDS011;36133;42.522;27.456;2023-05-07T05:31:36;11.60;;;3.70;;
50249;SDS011;36133;42.522;27.456;2023-05-07T05:34:02;5.90;;;3.10;;
50249;SDS011;36133;42.522;27.456;2023-05-07T05:36:27;6.13;;;3.10;;
50249;SDS011;36133;42.522;27.456;2023-05-07T05:38:53;9.02;;;2.92;;
50249;SDS011;36133;42.522;27.456;2023-05-07T05:41:20;12.70;;;2.63;;
50249;SDS011;36133;42.522;27.456;2023-05-07T05:43:46;6.57;;;2.80;;
50249;SDS011;36133;42.522;27.456;2023-05-07T05:46:12;10.13;;;3.20;;
50249;SDS011;36133;42.522;27.456;2023-05-07T05:48:37;7.05;;;2.83;;
50249;SDS011;36133;42.522;27.456;2023-05-07T05:51:03;8.48;;;2.95;;
50249;SDS011;36133;42.522;27.456;2023-05-07T05:53:28;7.15;;;3.00;;
50249;SDS011;36133;42.522;27.456;2023-05-07T05:55:54;6.75;;;2.45;;
50249;SDS011;36133;42.522;27.456;2023-05-07T05:58:20;6.30;;;2.58;;
50249;SDS011;36133;42.522;27.456;2023-05-07T06:00:45;8.27;;;2.95;;
50249;SDS011;36133;42.522;27.456;2023-05-07T06:03:13;5.80;;;2.92;;
50249;SDS011;36133;42.522;27.456;2023-05-07T06:05:38;9.27;;;2.65;;
50249;SDS011;36133;42.522;27.456;2023-05-07T06:08:04;6.38;;;2.92;;
50249;SDS011;36133;42.522;27.456;2023-05-07T06:10:30;9.05;;;2.65;;
50249;SDS011;36133;42.522;27.456;2023-05-07T06:12:55;13.27;;;2.95;;
50249;SDS011;36133;42.522;27.456;2023-05-07T06:15:21;6.03;;;3.00;;
50249;SDS011;36133;42.522;27.456;2023-05-07T06:17:46;12.07;;;3.17;;
50249;SDS011;36133;42.522;27.456;2023-05-07T06:20:12;6.45;;;2.53;;
50249;SDS011;36133;42.522;27.456;2023-05-07T06:22:37;13.20;;;2.90;;
50249;SDS011;36133;42.522;27.456;2023-05-07T06:25:03;13.23;;;2.65;;
50249;SDS011;36133;42.522;27.456;2023-05-07T06:27:29;8.50;;;2.63;;
50249;SDS011;36133;42.522;27.456;2023-05-07T06:29:54;10.65;;;3.17;;
50249;SDS011;36133;42.522;27.456;2023-05-07T06:32:25;10.32;;;3.28;;
50249;SDS011;36133;42.522;27.456;2023-05-07T06:34:51;10.07;;;2.90;;
50249;SDS011;36133;42.522;27.456;2023-05-07T06:37:17;6.70;;;2.90;;
50249;SDS011;36133;42.522;27.456;2023-05-07T06:39:43;6.55;;;2.65;;
50249;SDS011;36133;42.522;27.456;2023-05-07T06:42:08;7.95;;;3.00;;
50249;SDS011;36133;42.522;27.456;2023-05-07T06:44:34;10.50;;;3.33;;
50249;SDS011;36133;42.522;27.456;2023-05-07T06:46:59;13.48;;;2.80;;
50249;SDS011;36133;42.522;27.456;2023-05-07T06:49:26;6.15;;;2.90;;
50249;SDS011;36133;42.522;27.456;2023-05-07T06:51:52;7.28;;;2.95;;
50249;SDS011;36133;42.522;27.456;2023-05-07T06:54:18;5.60;;;2.72;;
50249;SDS011;36133;42.522;27.456;2023-05-07T06:56:43;9.25;;;2.60;;
50249;SDS011;36133;42.522;27.456;2023-05-07T06:59:09;11.55;;;2.97;;
50249;SDS011;36133;42.522;27.456;2023-05-07T07:01:35;9.32;;;2.85;;
50249;SDS011;36133;42.522;27.456;2023-05-07T07:04:00;8.30;;;2.80;;
50249;SDS011;36133;42.522;27.456;2023-05-07T07:06:26;9.35;;;2.97;;
50249;SDS011;36133;42.522;27.456;2023-05-07T07:08:52;7.20;;;2.85;;
50249;SDS011;36133;42.522;27.456;2023-05-07T07:11:17;6.35;;;3.13;;
50249;SDS011;36133;42.522;27.456;2023-05-07T07:13:43;6.75;;;3.10;;
50249;SDS011;36133;42.522;27.456;2023-05-07T07:16:08;5.00;;;2.58;;
50249;SDS011;36133;42.522;27.456;2023-05-07T07:18:34;8.48;;;2.67;;
50249;SDS011;36133;42.522;27.456;2023-05-07T07:21:00;8.02;;;2.92;;
50249;SDS011;36133;42.522;27.456;2023-05-07T07:23:26;4.60;;;2.45;;
50249;SDS011;36133;42.522;27.456;2023-05-07T07:25:51;6.55;;;2.63;;
50249;SDS011;36133;42.522;27.456;2023-05-07T07:28:17;7.25;;;2.42;;
50249;SDS011;36133;42.522;27.456;2023-05-07T07:30:43;10.63;;;2.70;;
50249;SDS011;36133;42.522;27.456;2023-05-07T07:33:10;10.07;;;2.75;;
50249;SDS011;36133;42.522;27.456;2023-05-07T07:35:35;10.63;;;3.25;;
50249;SDS011;36133;42.522;27.456;2023-05-07T07:38:01;10.57;;;2.88;;
50249;SDS011;36133;42.522;27.456;2023-05-07T07:40:27;6.45;;;2.50;;
50249;SDS011;36133;42.522;27.456;2023-05-07T07:42:53;11.70;;;2.80;;
50249;SDS011;36133;42.522;27.456;2023-05-07T07:45:19;8.10;;;2.55;;
50249;SDS011;36133;42.522;27.456;2023-05-07T07:47:45;7.95;;;2.85;;
50249;SDS011;36133;42.522;27.456;2023-05-07T07:50:11;7.22;;;2.90;;
50249;SDS011;36133;42.522;27.456;2023-05-07T07:52:37;3.65;;;2.10;;
50249;SDS011;36133;42.522;27.456;2023-05-07T07:55:03;8.55;;;2.70;;
50249;SDS011;36133;42.522;27.456;2023-05-07T07:57:29;6.57;;;2.15;;
50249;SDS011;36133;42.522;27.456;2023-05-07T07:59:55;3.90;;;2.15;;
50249;SDS011;36133;42.522;27.456;2023-05-07T08:02:21;36.30;;;4.00;;
50249;SDS011;36133;42.522;27.456;2023-05-07T08:04:46;4.97;;;2.60;;
50249;SDS011;36133;42.522;27.456;2023-05-07T08:07:12;4.80;;;2.58;;
50249;SDS011;36133;42.522;27.456;2023-05-07T08:09:38;5.55;;;2.42;;
50249;SDS011;36133;42.522;27.456;2023-05-07T08:12:05;6.72;;;2.70;;
50249;SDS011;36133;42.522;27.456;2023-05-07T08:14:32;12.98;;;3.13;;
50249;SDS011;36133;42.522;27.456;2023-05-07T08:16:58;6.95;;;2.58;;
50249;SDS011;36133;42.522;27.456;2023-05-07T08:19:24;6.20;;;2.85;;
50249;SDS011;36133;42.522;27.456;2023-05-07T08:21:49;6.80;;;2.53;;
50249;SDS011;36133;42.522;27.456;2023-05-07T08:24:16;7.82;;;2.90;;
50249;SDS011;36133;42.522;27.456;2023-05-07T08:26:43;5.07;;;2.60;;
50249;SDS011;36133;42.522;27.456;2023-05-07T08:29:10;10.07;;;3.00;;
50249;SDS011;36133;42.522;27.456;2023-05-07T08:31:36;5.43;;;2.67;;
50249;SDS011;36133;42.522;27.456;2023-05-07T08:34:02;5.13;;;2.42;;
50249;SDS011;36133;42.522;27.456;2023-05-07T08:36:28;8.68;;;2.53;;
50249;SDS011;36133;42.522;27.456;2023-05-07T08:38:54;5.05;;;2.40;;
50249;SDS011;36133;42.522;27.456;2023-05-07T08:41:20;7.68;;;2.58;;
50249;SDS011;36133;42.522;27.456;2023-05-07T08:43:49;10.77;;;2.80;;
50249;SDS011;36133;42.522;27.456;2023-05-07T08:46:20;20.90;;;2.83;;
50249;SDS011;36133;42.522;27.456;2023-05-07T08:48:49;11.10;;;2.60;;
50249;SDS011;36133;42.522;27.456;2023-05-07T08:51:16;7.15;;;2.88;;
50249;SDS011;36133;42.522;27.456;2023-05-07T08:53:44;8.00;;;2.70;;
50249;SDS011;36133;42.522;27.456;2023-05-07T08:56:10;4.07;;;2.45;;
50249;SDS011;36133;42.522;27.456;2023-05-07T08:58:36;7.78;;;3.00;;
50249;SDS011;36133;42.522;27.456;2023-05-07T09:01:03;8.75;;;2.67;;
50249;SDS011;36133;42.522;27.456;2023-05-07T09:03:33;3.72;;;2.30;;
50249;SDS011;36133;42.522;27.456;2023-05-07T09:05:59;5.85;;;2.70;;
50249;SDS011;36133;42.522;27.456;2023-05-07T09:08:25;6.60;;;2.13;;
50249;SDS011;36133;42.522;27.456;2023-05-07T09:10:52;6.97;;;2.65;;
50249;SDS011;36133;42.522;27.456;2023-05-07T09:13:18;7.47;;;2.50;;
50249;SDS011;36133;42.522;27.456;2023-05-07T09:15:44;7.13;;;2.53;;
50249;SDS011;36133;42.522;27.456;2023-05-07T09:18:10;10.98;;;2.63;;
50249;SDS011;36133;42.522;27.456;2023-05-07T09:20:36;8.60;;;2.50;;
50249;SDS011;36133;42.522;27.456;2023-05-07T09:23:10;6.72;;;2.88;;
50249;SDS011;36133;42.522;27.456;2023-05-07T09:25:36;6.28;;;2.30;;
50249;SDS011;36133;42.522;27.456;2023-05-07T09:28:03;8.32;;;2.70;;
50249;SDS011;36133;42.522;27.456;2023-05-07T09:30:30;10.32;;;2.88;;
50249;SDS011;36133;42.522;27.456;2023-05-07T09:33:00;6.55;;;2.80;;
50249;SDS011;36133;42.522;27.456;2023-05-07T09:35:30;6.60;;;2.65;;
50249;SDS011;36133;42.522;27.456;2023-05-07T09:37:56;7.05;;;2.78;;
50249;SDS011;36133;42.522;27.456;2023-05-07T09:40:23;7.05;;;2.80;;
50249;SDS011;36133;42.522;27.456;2023-05-07T09:42:56;25.40;;;4.05;;
50249;SDS011;36133;42.522;27.456;2023-05-07T09:45:25;5.65;;;2.22;;
50249;SDS011;36133;42.522;27.456;2023-05-07T09:47:53;10.63;;;3.08;;
50249;SDS011;36133;42.522;27.456;2023-05-07T09:50:22;7.03;;;2.38;;
50249;SDS011;36133;42.522;27.456;2023-05-07T09:52:52;11.63;;;3.00;;
50249;SDS011;36133;42.522;27.456;2023-05-07T09:55:20;6.25;;;2.35;;
50249;SDS011;36133;42.522;27.456;2023-05-07T09:57:47;10.00;;;2.45;;
50249;SDS011;36133;42.522;27.456;2023-05-07T10:00:15;6.95;;;2.58;;
50249;SDS011;36133;42.522;27.456;2023-05-07T10:02:48;6.82;;;2.72;;
50249;SDS011;36133;42.522;27.456;2023-05-07T10:05:17;7.10;;;2.35;;
50249;SDS011;36133;42.522;27.456;2023-05-07T10:07:45;13.43;;;2.58;;
50249;SDS011;36133;42.522;27.456;2023-05-07T10:10:11;5.88;;;2.63;;
50249;SDS011;36133;42.522;27.456;2023-05-07T10:12:38;8.40;;;2.50;;
50249;SDS011;36133;42.522;27.456;2023-05-07T10:15:08;8.25;;;2.58;;
50249;SDS011;36133;42.522;27.456;2023-05-07T10:17:39;6.40;;;2.42;;
50249;SDS011;36133;42.522;27.456;2023-05-07T10:20:05;11.57;;;2.50;;
50249;SDS011;36133;42.522;27.456;2023-05-07T10:22:38;9.00;;;2.90;;
50249;SDS011;36133;42.522;27.456;2023-05-07T10:25:06;10.60;;;2.30;;
50249;SDS011;36133;42.522;27.456;2023-05-07T10:27:40;7.32;;;2.60;;
50249;SDS011;36133;42.522;27.456;2023-05-07T10:33:06;9.98;;;2.60;;
50249;SDS011;36133;42.522;27.456;2023-05-07T10:35:38;6.03;;;2.67;;
50249;SDS011;36133;42.522;27.456;2023-05-07T10:38:17;5.65;;;2.70;;
50249;SDS011;36133;42.522;27.456;2023-05-07T10:40:44;5.72;;;2.75;;
50249;SDS011;36133;42.522;27.456;2023-05-07T10:43:09;7.35;;;2.45;;
50249;SDS011;36133;42.522;27.456;2023-05-07T10:45:35;9.25;;;2.97;;
50249;SDS011;36133;42.522;27.456;2023-05-07T10:48:13;10.20;;;3.20;;
50249;SDS011;36133;42.522;27.456;2023-05-07T10:50:41;10.38;;;2.80;;
50249;SDS011;36133;42.522;27.456;2023-05-07T10:55:41;5.72;;;2.47;;
50249;SDS011;36133;42.522;27.456;2023-05-07T10:58:26;5.85;;;2.47;;
50249;SDS011;36133;42.522;27.456;2023-05-07T11:03:22;6.38;;;2.70;;
50249;SDS011;36133;42.522;27.456;2023-05-07T11:05:47;8.05;;;2.63;;
50249;SDS011;36133;42.522;27.456;2023-05-07T11:09:08;8.77;;;2.72;;
50249;SDS011;36133;42.522;27.456;2023-05-07T11:11:48;14.02;;;2.75;;
50249;SDS011;36133;42.522;27.456;2023-05-07T11:17:08;10.48;;;2.67;;
50249;SDS011;36133;42.522;27.456;2023-05-07T11:24:59;9.90;;;2.47;;
50249;SDS011;36133;42.522;27.456;2023-05-07T11:27:26;9.27;;;2.80;;
50249;SDS011;36133;42.522;27.456;2023-05-07T11:29:52;8.77;;;3.50;;
50249;SDS011;36133;42.522;27.456;2023-05-07T11:32:31;9.30;;;2.58;;
50249;SDS011;36133;42.522;27.456;2023-05-07T11:34:58;4.90;;;2.63;;
50249;SDS011;36133;42.522;27.456;2023-05-07T11:37:25;10.15;;;2.72;;
50249;SDS011;36133;42.522;27.456;2023-05-07T11:40:02;10.63;;;2.60;;
50249;SDS011;36133;42.522;27.456;2023-05-07T11:42:32;5.93;;;2.58;;
50249;SDS011;36133;42.522;27.456;2023-05-07T11:44:59;8.48;;;2.67;;
50249;SDS011;36133;42.522;27.456;2023-05-07T11:47:25;7.90;;;2.40;;
50249;SDS011;36133;42.522;27.456;2023-05-07T11:49:52;7.05;;;2.33;;
50249;SDS011;36133;42.522;27.456;2023-05-07T11:52:19;8.05;;;2.80;;
50249;SDS011;36133;42.522;27.456;2023-05-07T11:57:20;7.50;;;3.35;;
50249;SDS011;36133;42.522;27.456;2023-05-07T11:59:46;5.30;;;2.40;;
50249;SDS011;36133;42.522;27.456;2023-05-07T12:02:16;6.85;;;2.85;;
50249;SDS011;36133;42.522;27.456;2023-05-07T12:04:43;9.38;;;2.60;;
50249;SDS011;36133;42.522;27.456;2023-05-07T12:07:17;10.48;;;3.10;;
50249;SDS011;36133;42.522;27.456;2023-05-07T12:09:46;10.13;;;3.45;;
50249;SDS011;36133;42.522;27.456;2023-05-07T12:12:12;10.00;;;3.30;;
50249;SDS011;36133;42.522;27.456;2023-05-07T12:14:43;10.75;;;2.95;;
50249;SDS011;36133;42.522;27.456;2023-05-07T12:17:10;9.20;;;2.97;;
50249;SDS011;36133;42.522;27.456;2023-05-07T12:19:37;8.40;;;3.13;;
50249;SDS011;36133;42.522;27.456;2023-05-07T12:22:04;10.85;;;3.40;;
50249;SDS011;36133;42.522;27.456;2023-05-07T12:24:43;8.25;;;3.05;;
50249;SDS011;36133;42.522;27.456;2023-05-07T12:27:10;7.07;;;3.00;;
50249;SDS011;36133;42.522;27.456;2023-05-07T12:29:35;9.45;;;3.15;;
50249;SDS011;36133;42.522;27.456;2023-05-07T12:32:04;8.50;;;3.00;;
50249;SDS011;36133;42.522;27.456;2023-05-07T12:34:31;12.23;;;3.60;;
50249;SDS011;36133;42.522;27.456;2023-05-07T12:36:57;11.77;;;3.53;;
50249;SDS011;36133;42.522;27.456;2023-05-07T12:39:22;15.93;;;3.58;;
50249;SDS011;36133;42.522;27.456;2023-05-07T12:44:23;13.82;;;3.70;;
50249;SDS011;36133;42.522;27.456;2023-05-07T12:46:49;13.48;;;3.40;;
50249;SDS011;36133;42.522;27.456;2023-05-07T12:49:15;12.88;;;3.40;;
50249;SDS011;36133;42.522;27.456;2023-05-07T12:51:43;13.15;;;3.55;;
50249;SDS011;36133;42.522;27.456;2023-05-07T12:54:09;9.85;;;3.47;;
50249;SDS011;36133;42.522;27.456;2023-05-07T12:56:38;6.53;;;3.20;;
50249;SDS011;36133;42.522;27.456;2023-05-07T12:59:04;10.57;;;3.88;;
50249;SDS011;36133;42.522;27.456;2023-05-07T13:01:30;9.07;;;3.15;;
50249;SDS011;36133;42.522;27.456;2023-05-07T13:04:03;14.18;;;3.55;;
50249;SDS011;36133;42.522;27.456;2023-05-07T13:06:29;11.65;;;3.13;;
50249;SDS011;36133;42.522;27.456;2023-05-07T13:08:57;7.95;;;3.22;;
50249;SDS011;36133;42.522;27.456;2023-05-07T13:11:23;8.32;;;3.20;;
50249;SDS011;36133;42.522;27.456;2023-05-07T13:13:48;18.17;;;3.95;;
50249;SDS011;36133;42.522;27.456;2023-05-07T13:16:14;8.30;;;3.50;;
50249;SDS011;36133;42.522;27.456;2023-05-07T13:18:40;12.50;;;3.30;;
50249;SDS011;36133;42.522;27.456;2023-05-07T13:21:11;8.88;;;2.83;;
50249;SDS011;36133;42.522;27.456;2023-05-07T13:23:38;10.38;;;3.20;;
50249;SDS011;36133;42.522;27.456;2023-05-07T13:26:03;12.27;;;3.55;;
50249;SDS011;36133;42.522;27.456;2023-05-07T13:28:29;11.38;;;3.03;;
50249;SDS011;36133;42.522;27.456;2023-05-07T13:30:55;10.82;;;3.53;;
50249;SDS011;36133;42.522;27.456;2023-05-07T13:33:20;9.80;;;3.53;;
50249;SDS011;36133;42.522;27.456;2023-05-07T13:35:46;7.78;;;2.97;;
50249;SDS011;36133;42.522;27.456;2023-05-07T13:38:12;10.82;;;3.28;;
50249;SDS011;36133;42.522;27.456;2023-05-07T13:40:40;7.80;;;3.45;;
50249;SDS011;36133;42.522;27.456;2023-05-07T13:43:06;11.98;;;3.35;;
50249;SDS011;36133;42.522;27.456;2023-05-07T13:45:32;7.50;;;3.15;;
50249;SDS011;36133;42.522;27.456;2023-05-07T13:47:58;8.43;;;3.45;;
50249;SDS011;36133;42.522;27.456;2023-05-07T13:50:24;10.50;;;3.67;;
50249;SDS011;36133;42.522;27.456;2023-05-07T13:53:09;11.20;;;3.22;;
50249;SDS011;36133;42.522;27.456;2023-05-07T13:55:35;8.02;;;3.40;;
50249;SDS011;36133;42.522;27.456;2023-05-07T13:58:02;8.48;;;3.20;;
50249;SDS011;36133;42.522;27.456;2023-05-07T14:00:28;9.05;;;2.80;;
50249;SDS011;36133;42.522;27.456;2023-05-07T14:02:54;9.68;;;3.88;;
50249;SDS011;36133;42.522;27.456;2023-05-07T14:05:20;7.03;;;3.50;;
50249;SDS011;36133;42.522;27.456;2023-05-07T14:07:48;7.13;;;3.10;;
50249;SDS011;36133;42.522;27.456;2023-05-07T14:10:16;13.00;;;4.00;;
50249;SDS011;36133;42.522;27.456;2023-05-07T14:12:43;11.85;;;3.47;;
50249;SDS011;36133;42.522;27.456;2023-05-07T14:15:10;14.38;;;3.30;;
50249;SDS011;36133;42.522;27.456;2023-05-07T14:17:36;9.68;;;3.35;;
50249;SDS011;36133;42.522;27.456;2023-05-07T14:20:02;13.85;;;3.65;;
50249;SDS011;36133;42.522;27.456;2023-05-07T14:22:28;7.38;;;3.30;;
50249;SDS011;36133;42.522;27.456;2023-05-07T14:24:53;9.73;;;3.25;;
50249;SDS011;36133;42.522;27.456;2023-05-07T14:27:19;9.77;;;3.58;;
50249;SDS011;36133;42.522;27.456;2023-05-07T14:29:45;11.05;;;3.15;;
50249;SDS011;36133;42.522;27.456;2023-05-07T14:32:16;9.85;;;2.90;;
50249;SDS011;36133;42.522;27.456;2023-05-07T14:34:43;8.70;;;3.28;;
50249;SDS011;36133;42.522;27.456;2023-05-07T14:37:08;9.75;;;3.20;;
50249;SDS011;36133;42.522;27.456;2023-05-07T14:39:34;9.45;;;3.60;;
50249;SDS011;36133;42.522;27.456;2023-05-07T14:42:00;11.77;;;3.45;;
50249;SDS011;36133;42.522;27.456;2023-05-07T14:44:25;11.88;;;3.47;;
50249;SDS011;36133;42.522;27.456;2023-05-07T14:46:51;15.75;;;3.50;;
50249;SDS011;36133;42.522;27.456;2023-05-07T14:49:20;10.75;;;3.25;;
50249;SDS011;36133;42.522;27.456;2023-05-07T14:51:45;8.10;;;3.50;;